createdAt,value
2017-09-27T00:01:37.743Z,75.63
2017-09-27T00:04:03.971Z,72.97
2017-09-27T00:06:30.238Z,73.56
2017-09-27T00:08:56.461Z,74.90
2017-09-27T00:11:22.696Z,72.18
2017-09-27T00:13:48.957Z,73.17
2017-09-27T00:16:15.192Z,73.25
2017-09-27T00:18:41.443Z,72.50
2017-09-27T00:21:07.670Z,72.37
2017-09-27T00:23:33.885Z,72.43
2017-09-27T00:26:00.240Z,73.79
2017-09-27T00:28:26.460Z,74.25
2017-09-27T00:30:52.696Z,77.89
2017-09-27T00:33:18.936Z,74.77
2017-09-27T00:35:45.174Z,79.49
2017-09-27T00:38:11.432Z,72.82
2017-09-27T00:40:37.711Z,74.25
2017-09-27T00:43:03.949Z,77.20
2017-09-27T00:45:30.162Z,79.00
2017-09-27T00:47:56.432Z,72.73
2017-09-27T00:50:22.645Z,74.90
2017-09-27T00:52:48.868Z,71.01
2017-09-27T00:55:15.845Z,72.77
2017-09-27T00:57:42.078Z,70.02
2017-09-27T01:00:08.298Z,71.14
2017-09-27T01:02:34.643Z,68.20
2017-09-27T01:05:00.907Z,69.38
2017-09-27T01:07:27.136Z,68.35
2017-09-27T01:09:53.398Z,68.76
2017-09-27T01:12:19.619Z,67.90
2017-09-27T01:14:45.844Z,69.08
2017-09-27T01:17:12.148Z,69.60
2017-09-27T01:19:38.364Z,69.39
2017-09-27T01:22:04.607Z,69.67
2017-09-27T01:24:30.862Z,70.34
2017-09-27T01:26:57.094Z,67.96
2017-09-27T01:29:23.314Z,68.46
2017-09-27T01:31:49.580Z,68.61
2017-09-27T01:34:16.046Z,70.83
2017-09-27T01:36:42.277Z,69.87
2017-09-27T01:39:08.578Z,72.41
2017-09-27T01:41:34.802Z,70.91
2017-09-27T01:44:01.038Z,71.18
2017-09-27T01:46:27.344Z,72.69
2017-09-27T01:48:53.575Z,74.07
2017-09-27T01:51:19.808Z,75.10
2017-09-27T01:53:46.085Z,76.35
2017-09-27T01:56:12.317Z,76.56
2017-09-27T01:58:38.553Z,78.21
2017-09-27T02:01:04.847Z,78.61
2017-09-27T02:03:31.073Z,79.12
2017-09-27T02:05:57.294Z,79.05
2017-09-27T02:08:23.569Z,79.53
2017-09-27T02:10:49.812Z,79.53
2017-09-27T02:13:16.034Z,78.95
2017-09-27T02:15:42.342Z,78.66
2017-09-27T02:18:08.574Z,79.81
2017-09-27T02:20:34.804Z,81.42
2017-09-27T02:23:01.099Z,81.54
2017-09-27T02:25:27.330Z,81.08
2017-09-27T02:27:53.550Z,81.90
2017-09-27T02:30:19.839Z,82.82
2017-09-27T02:32:46.051Z,81.82
2017-09-27T02:35:12.270Z,82.20
2017-09-27T02:37:38.544Z,79.56
2017-09-27T02:40:04.791Z,73.78
2017-09-27T02:42:31.041Z,76.00
2017-09-27T02:44:57.316Z,78.23
2017-09-27T02:47:23.564Z,80.55
2017-09-27T02:49:49.808Z,80.38
2017-09-27T02:52:16.087Z,80.05
2017-09-27T02:54:42.316Z,80.48
2017-09-27T02:57:08.542Z,81.44
2017-09-27T02:59:34.848Z,81.76
2017-09-27T03:02:01.501Z,80.65
2017-09-27T03:04:27.740Z,81.13
2017-09-27T03:06:54.162Z,81.66
2017-09-27T03:09:20.390Z,79.87
2017-09-27T03:11:46.608Z,80.29
2017-09-27T03:14:12.888Z,78.52
2017-09-27T03:16:39.127Z,78.32
2017-09-27T03:19:05.358Z,76.33
2017-09-27T03:21:31.629Z,76.96
2017-09-27T03:23:57.871Z,75.30
2017-09-27T03:26:24.097Z,77.33
2017-09-27T03:28:50.392Z,77.31
2017-09-27T03:31:16.632Z,76.98
2017-09-27T03:33:42.879Z,77.29
2017-09-27T03:36:09.152Z,75.85
2017-09-27T03:38:35.374Z,76.39
2017-09-27T03:41:01.600Z,76.38
2017-09-27T03:43:27.897Z,73.22
2017-09-27T03:45:54.123Z,75.13
2017-09-27T03:48:20.363Z,75.60
2017-09-27T03:50:46.647Z,74.63
2017-09-27T03:53:12.903Z,72.77
2017-09-27T03:55:39.123Z,73.34
2017-09-27T03:58:05.393Z,76.55
2017-09-27T04:00:31.623Z,76.19
2017-09-27T04:02:57.849Z,74.86
2017-09-27T04:05:24.127Z,77.23
2017-09-27T04:07:50.366Z,75.11
2017-09-27T04:10:16.614Z,78.17
2017-09-27T04:12:42.882Z,78.51
2017-09-27T04:15:09.109Z,75.22
2017-09-27T04:17:35.337Z,76.84
2017-09-27T04:20:01.637Z,77.98
2017-09-27T04:22:27.870Z,77.89
2017-09-27T04:24:54.110Z,76.43
2017-09-27T04:27:20.373Z,75.39
2017-09-27T04:29:50.628Z,79.37
2017-09-27T04:32:16.875Z,78.08
2017-09-27T04:34:43.155Z,77.37
2017-09-27T04:37:09.369Z,77.11
2017-09-27T04:39:35.586Z,73.87
2017-09-27T04:42:01.872Z,72.03
2017-09-27T04:44:28.124Z,74.53
2017-09-27T04:46:54.376Z,71.54
2017-09-27T04:49:20.683Z,69.57
2017-09-27T04:51:46.931Z,70.78
2017-09-27T04:54:13.164Z,72.57
2017-09-27T04:56:39.484Z,72.02
2017-09-27T04:59:05.719Z,73.67
2017-09-27T05:01:31.952Z,72.65
2017-09-27T05:03:58.262Z,74.26
2017-09-27T05:06:24.493Z,74.15
2017-09-27T05:08:50.732Z,72.69
2017-09-27T05:11:17.052Z,71.06
2017-09-27T05:13:43.284Z,73.07
2017-09-27T05:16:09.530Z,73.35
2017-09-27T05:18:35.808Z,72.66
2017-09-27T05:21:02.035Z,73.13
2017-09-27T05:23:28.295Z,71.99
2017-09-27T05:25:54.571Z,72.11
2017-09-27T05:28:20.800Z,74.37
2017-09-27T05:30:47.028Z,76.10
2017-09-27T05:33:13.331Z,76.23
2017-09-27T05:35:39.603Z,73.29
2017-09-27T05:38:05.851Z,73.95
2017-09-27T05:40:32.138Z,71.42
2017-09-27T05:42:58.389Z,72.73
2017-09-27T05:45:24.614Z,71.22
2017-09-27T05:47:50.897Z,74.19
2017-09-27T05:50:17.148Z,73.37
2017-09-27T05:52:43.382Z,73.98
2017-09-27T05:55:09.679Z,76.53
2017-09-27T05:57:35.919Z,79.17
2017-09-27T06:00:02.174Z,76.84
2017-09-27T06:02:28.473Z,77.31
2017-09-27T06:04:54.710Z,81.16
2017-09-27T06:07:20.945Z,81.26
2017-09-27T06:09:47.242Z,81.60
2017-09-27T06:12:13.485Z,80.53
2017-09-27T06:14:39.715Z,81.07
2017-09-27T06:17:05.983Z,80.00
2017-09-27T06:19:32.250Z,79.39
2017-09-27T06:21:58.674Z,79.17
2017-09-27T06:24:24.944Z,79.05
2017-09-27T06:26:51.213Z,77.16
2017-09-27T06:29:17.472Z,78.08
2017-09-27T06:31:43.781Z,76.83
2017-09-27T06:34:10.034Z,78.41
2017-09-27T06:36:36.271Z,78.66
2017-09-27T06:39:02.603Z,79.88
2017-09-27T06:41:28.831Z,80.91
2017-09-27T06:43:55.083Z,80.67
2017-09-27T06:46:21.384Z,79.81
2017-09-27T06:48:47.624Z,81.33
2017-09-27T06:51:13.867Z,81.86
2017-09-27T06:53:40.159Z,81.08
2017-09-27T06:56:06.410Z,83.50
2017-09-27T06:58:32.664Z,83.18
2017-09-27T07:00:58.992Z,84.39
2017-09-27T07:03:25.239Z,84.80
2017-09-27T07:05:51.471Z,86.24
2017-09-27T07:08:17.725Z,86.55
2017-09-27T07:10:43.958Z,85.62
2017-09-27T07:13:10.201Z,85.23
2017-09-27T07:15:36.481Z,85.88
2017-09-27T07:18:02.716Z,85.15
2017-09-27T07:20:28.946Z,82.31
2017-09-27T07:22:55.213Z,80.79
2017-09-27T07:25:21.461Z,83.55
2017-09-27T07:27:47.854Z,84.10
2017-09-27T07:30:14.132Z,85.67
2017-09-27T07:32:40.373Z,86.40
2017-09-27T07:35:06.606Z,86.61
2017-09-27T07:37:32.886Z,85.79
2017-09-27T07:39:59.106Z,84.61
2017-09-27T07:42:25.345Z,85.16
2017-09-27T07:44:51.744Z,86.12
2017-09-27T07:47:17.995Z,85.62
2017-09-27T07:49:44.263Z,84.59
2017-09-27T07:52:10.533Z,84.85
2017-09-27T07:54:36.761Z,83.65
2017-09-27T07:57:03.020Z,82.70
2017-09-27T07:59:29.293Z,82.99
2017-09-27T08:01:55.531Z,82.02
2017-09-27T08:04:21.759Z,80.91
2017-09-27T08:06:48.037Z,79.03
2017-09-27T08:09:14.297Z,80.97
2017-09-27T08:11:40.557Z,82.46
2017-09-27T08:14:06.844Z,83.07
2017-09-27T08:16:33.090Z,83.88
2017-09-27T08:18:59.352Z,84.26
2017-09-27T08:21:25.652Z,84.81
2017-09-27T08:23:51.944Z,84.92
2017-09-27T08:26:18.182Z,84.21
2017-09-27T08:28:44.452Z,83.03
2017-09-27T08:31:10.704Z,82.67
2017-09-27T08:33:36.967Z,81.68
2017-09-27T08:36:03.247Z,82.33
2017-09-27T08:38:29.482Z,83.49
2017-09-27T08:40:55.760Z,83.25
2017-09-27T08:43:22.085Z,82.40
2017-09-27T08:45:48.336Z,82.27
2017-09-27T08:48:14.581Z,82.82
2017-09-27T08:50:40.876Z,82.93
2017-09-27T08:53:07.102Z,83.91
2017-09-27T08:55:33.350Z,83.69
2017-09-27T08:57:59.655Z,83.33
2017-09-27T09:00:25.900Z,84.70
2017-09-27T09:02:52.140Z,85.59
2017-09-27T09:05:18.410Z,85.82
2017-09-27T09:07:44.657Z,85.16
2017-09-27T09:10:10.892Z,84.87
2017-09-27T09:12:37.166Z,84.20
2017-09-27T09:15:03.399Z,84.00
2017-09-27T09:17:29.688Z,82.37
2017-09-27T09:19:55.968Z,83.63
2017-09-27T09:22:22.208Z,82.39
2017-09-27T09:24:48.426Z,81.48
2017-09-27T09:27:14.691Z,81.35
2017-09-27T09:29:40.929Z,82.61
2017-09-27T09:32:07.179Z,82.74
2017-09-27T09:34:33.459Z,81.48
2017-09-27T09:36:59.719Z,80.66
2017-09-27T09:39:25.949Z,82.26
2017-09-27T09:41:52.230Z,78.25
2017-09-27T09:44:18.470Z,81.71
2017-09-27T09:46:44.703Z,81.52
2017-09-27T09:49:10.965Z,80.61
2017-09-27T09:51:37.191Z,78.71
2017-09-27T09:54:03.431Z,81.33
2017-09-27T09:56:29.696Z,79.65
2017-09-27T09:58:55.935Z,80.58
2017-09-27T10:01:22.176Z,80.43
2017-09-27T10:03:48.442Z,80.05
2017-09-27T10:06:14.689Z,78.63
2017-09-27T10:08:40.945Z,80.57
2017-09-27T10:11:07.217Z,80.38
2017-09-27T10:13:33.447Z,78.58
2017-09-27T10:15:59.677Z,79.60
2017-09-27T10:18:25.960Z,80.58
2017-09-27T10:20:52.227Z,81.78
2017-09-27T10:23:18.480Z,80.66
2017-09-27T10:25:44.772Z,81.13
2017-09-27T10:28:11.027Z,82.50
2017-09-27T10:30:37.297Z,83.70
2017-09-27T10:33:03.572Z,82.07
2017-09-27T10:35:29.828Z,83.40
2017-09-27T10:37:56.098Z,84.03
2017-09-27T10:40:22.415Z,85.39
2017-09-27T10:42:48.661Z,84.62
2017-09-27T10:45:14.901Z,84.40
2017-09-27T10:47:41.208Z,82.67
2017-09-27T10:50:07.476Z,84.62
2017-09-27T10:52:33.719Z,84.06
2017-09-27T10:55:00.062Z,86.08
2017-09-27T10:57:26.490Z,85.50
2017-09-27T10:59:52.735Z,84.37
2017-09-27T11:02:19.050Z,84.47
2017-09-27T11:04:45.330Z,86.38
2017-09-27T11:07:11.549Z,85.34
2017-09-27T11:09:37.821Z,85.04
2017-09-27T11:12:04.066Z,85.20
2017-09-27T11:14:30.307Z,85.67
2017-09-27T11:16:56.636Z,86.16
2017-09-27T11:19:22.876Z,85.57
2017-09-27T11:21:49.132Z,86.48
2017-09-27T11:24:15.458Z,85.71
2017-09-27T11:26:41.686Z,86.49
2017-09-27T11:29:07.939Z,85.27
2017-09-27T11:31:34.209Z,86.02
2017-09-27T11:34:00.442Z,86.64
2017-09-27T11:36:26.699Z,86.12
2017-09-27T11:38:52.994Z,84.94
2017-09-27T11:41:19.233Z,86.99
2017-09-27T11:43:45.494Z,86.20
2017-09-27T11:46:11.770Z,85.23
2017-09-27T11:48:38.013Z,86.47
2017-09-27T11:51:04.243Z,85.48
2017-09-27T11:53:30.563Z,85.39
2017-09-27T11:55:56.798Z,84.74
2017-09-27T11:58:23.020Z,84.60
2017-09-27T12:00:49.305Z,85.53
2017-09-27T12:03:15.536Z,86.82
2017-09-27T12:05:41.781Z,87.13
2017-09-27T12:08:08.014Z,85.71
2017-09-27T12:10:34.236Z,86.25
2017-09-27T12:13:00.483Z,85.79
2017-09-27T12:15:26.728Z,84.82
2017-09-27T12:17:52.980Z,85.32
2017-09-27T12:20:19.225Z,86.12
2017-09-27T12:22:45.471Z,85.65
2017-09-27T12:25:11.689Z,84.56
2017-09-27T12:27:37.931Z,84.81
2017-09-27T12:30:04.176Z,84.62
2017-09-27T12:32:30.417Z,84.54
2017-09-27T12:34:56.716Z,84.00
2017-09-27T12:37:22.945Z,84.87
2017-09-27T12:39:49.182Z,84.02
2017-09-27T12:42:15.454Z,84.44
2017-09-27T12:44:41.688Z,84.69
2017-09-27T12:47:07.918Z,85.30
2017-09-27T12:49:34.188Z,83.96
2017-09-27T12:52:00.421Z,85.20
2017-09-27T12:54:26.671Z,84.42
2017-09-27T12:56:52.940Z,83.03
2017-09-27T12:59:19.185Z,83.73
2017-09-27T13:01:45.473Z,83.31
2017-09-27T13:04:11.752Z,82.12
2017-09-27T13:06:37.991Z,83.68
2017-09-27T13:09:04.212Z,84.67
2017-09-27T13:11:30.491Z,84.66
2017-09-27T13:13:56.722Z,84.23
2017-09-27T13:16:22.950Z,84.80
2017-09-27T13:18:49.222Z,85.49
2017-09-27T13:21:15.482Z,85.25
2017-09-27T13:23:41.730Z,85.17
2017-09-27T13:26:08.022Z,85.56
2017-09-27T13:28:34.250Z,86.29
2017-09-27T13:31:00.500Z,85.70
2017-09-27T13:33:26.788Z,86.61
2017-09-27T13:35:53.033Z,85.73
2017-09-27T13:38:19.260Z,86.93
2017-09-27T13:40:45.583Z,85.74
2017-09-27T13:43:11.820Z,84.86
2017-09-27T13:45:38.064Z,84.95
2017-09-27T13:48:04.349Z,84.17
2017-09-27T13:50:30.608Z,84.72
2017-09-27T13:52:56.844Z,84.66
2017-09-27T13:55:23.113Z,84.50
2017-09-27T13:57:49.337Z,86.23
2017-09-27T14:00:15.589Z,87.09
2017-09-27T14:02:41.866Z,85.78
2017-09-27T14:05:08.099Z,85.84
2017-09-27T14:07:34.314Z,86.93
2017-09-27T14:10:00.597Z,86.15
2017-09-27T14:12:26.832Z,85.06
2017-09-27T14:14:53.107Z,86.03
2017-09-27T14:17:19.332Z,86.06
2017-09-27T14:19:45.578Z,86.21
2017-09-27T14:22:11.861Z,86.02
2017-09-27T14:24:38.111Z,86.13
2017-09-27T14:27:04.363Z,86.18
2017-09-27T14:29:30.633Z,86.55
2017-09-27T14:31:56.881Z,85.99
2017-09-27T14:34:23.133Z,86.41
2017-09-27T14:36:49.414Z,85.57
2017-09-27T14:39:15.661Z,85.33
2017-09-27T14:41:41.902Z,86.62
2017-09-27T14:44:08.172Z,86.73
2017-09-27T14:46:34.397Z,87.27
2017-09-27T14:49:00.628Z,88.04
2017-09-27T14:51:26.901Z,89.07
2017-09-27T14:53:53.147Z,89.18
2017-09-27T14:56:19.392Z,87.70
2017-09-27T14:58:45.662Z,88.35
2017-09-27T15:01:11.897Z,87.24
2017-09-27T15:03:38.135Z,88.26
2017-09-27T15:06:04.434Z,88.32
2017-09-27T15:08:30.669Z,88.29
2017-09-27T15:10:56.891Z,88.72
2017-09-27T15:13:23.185Z,88.17
2017-09-27T15:15:49.414Z,88.17
2017-09-27T15:18:15.654Z,88.65
2017-09-27T15:20:41.953Z,88.94
2017-09-27T15:23:08.199Z,89.14
2017-09-27T15:25:34.451Z,89.06
2017-09-27T15:28:00.701Z,89.61
2017-09-27T15:30:26.924Z,89.15
2017-09-27T15:32:53.139Z,89.15
2017-09-27T15:35:19.445Z,89.66
2017-09-27T15:37:45.989Z,90.00
2017-09-27T15:40:12.220Z,90.79
2017-09-27T15:42:38.492Z,90.56
2017-09-27T15:45:04.879Z,90.29
2017-09-27T15:47:31.115Z,89.59
2017-09-27T15:49:57.550Z,89.78
2017-09-27T15:52:23.788Z,89.13
2017-09-27T15:54:50.013Z,89.31
2017-09-27T15:57:16.271Z,89.20
2017-09-27T15:59:42.502Z,89.17
2017-09-27T16:02:08.756Z,89.17
2017-09-27T16:04:35.067Z,89.76
2017-09-27T16:07:01.304Z,89.39
2017-09-27T16:09:27.527Z,90.05
2017-09-27T16:11:53.809Z,91.37
2017-09-27T16:14:20.039Z,91.01
2017-09-27T16:16:46.262Z,90.99
2017-09-27T16:19:12.525Z,90.75
2017-09-27T16:21:38.763Z,90.65
2017-09-27T16:24:05.000Z,90.78
2017-09-27T16:26:31.253Z,90.69
2017-09-27T16:28:57.525Z,90.75
2017-09-27T16:31:23.756Z,90.57
2017-09-27T16:33:50.014Z,90.26
2017-09-27T16:36:16.230Z,89.33
2017-09-27T16:38:42.450Z,90.17
2017-09-27T16:41:08.708Z,90.76
2017-09-27T16:43:34.943Z,90.80
2017-09-27T16:46:01.177Z,90.48
2017-09-27T16:48:27.429Z,92.14
2017-09-27T16:50:53.700Z,92.09
2017-09-27T16:53:19.953Z,92.40
2017-09-27T16:55:46.215Z,91.74
2017-09-27T16:58:12.443Z,91.90
2017-09-27T17:00:38.664Z,90.79
2017-09-27T17:03:04.963Z,91.48
2017-09-27T17:05:31.182Z,90.77
2017-09-27T17:07:57.471Z,91.20
2017-09-27T17:10:23.743Z,91.33
2017-09-27T17:12:49.964Z,91.24
2017-09-27T17:15:16.169Z,91.75
2017-09-27T17:17:42.417Z,91.93
2017-09-27T17:20:08.645Z,92.01
2017-09-27T17:22:34.883Z,91.56
2017-09-27T17:25:01.162Z,91.03
2017-09-27T17:27:27.408Z,91.24
2017-09-27T17:29:53.619Z,91.76
2017-09-27T17:32:19.966Z,92.41
2017-09-27T17:34:46.202Z,92.02
2017-09-27T17:37:12.428Z,91.95
2017-09-27T17:39:38.709Z,91.15
2017-09-27T17:42:04.941Z,91.05
2017-09-27T17:44:31.179Z,91.12
2017-09-27T17:46:57.466Z,91.52
2017-09-27T17:49:23.672Z,91.59
2017-09-27T17:51:49.897Z,91.03
2017-09-27T17:54:16.187Z,91.42
2017-09-27T17:56:42.405Z,91.13
2017-09-27T17:59:08.636Z,90.49
2017-09-27T18:01:34.921Z,91.02
2017-09-27T18:04:01.148Z,91.05
2017-09-27T18:06:27.366Z,91.34
2017-09-27T18:08:53.653Z,91.34
2017-09-27T18:11:19.876Z,90.78
2017-09-27T18:13:46.092Z,91.68
2017-09-27T18:16:12.359Z,91.34
2017-09-27T18:18:38.574Z,90.95
2017-09-27T18:21:04.793Z,91.63
2017-09-27T18:23:31.045Z,90.99
2017-09-27T18:25:57.278Z,91.98
2017-09-27T18:28:23.486Z,91.52
2017-09-27T18:30:49.768Z,92.00
2017-09-27T18:33:15.985Z,91.78
2017-09-27T18:35:42.219Z,92.84
2017-09-27T18:38:08.504Z,93.70
2017-09-27T18:40:34.742Z,93.75
2017-09-27T18:43:00.984Z,92.08
2017-09-27T18:45:27.383Z,92.00
2017-09-27T18:47:53.621Z,91.37
2017-09-27T18:50:19.830Z,90.68
2017-09-27T18:52:46.089Z,92.25
2017-09-27T18:55:12.305Z,91.78
2017-09-27T18:57:38.540Z,91.44
2017-09-27T19:00:04.842Z,91.79
2017-09-27T19:02:31.073Z,92.24
2017-09-27T19:04:57.315Z,92.27
2017-09-27T19:07:23.606Z,91.49
2017-09-27T19:09:49.933Z,91.31
2017-09-27T19:12:16.175Z,91.57
2017-09-27T19:14:42.438Z,91.95
2017-09-27T19:17:08.668Z,92.38
2017-09-27T19:19:35.769Z,92.11
2017-09-27T19:22:02.027Z,91.64
2017-09-27T19:24:28.243Z,91.46
2017-09-27T19:26:54.483Z,91.51
2017-09-27T19:29:20.750Z,91.64
2017-09-27T19:31:47.003Z,91.65
2017-09-27T19:34:13.223Z,91.49
2017-09-27T19:36:39.465Z,91.63
2017-09-27T19:39:05.691Z,92.06
2017-09-27T19:41:31.929Z,92.22
2017-09-27T19:43:58.195Z,92.03
2017-09-27T19:46:24.402Z,92.29
2017-09-27T19:48:50.627Z,91.90
2017-09-27T19:51:16.890Z,91.99
2017-09-27T19:53:43.100Z,92.90
2017-09-27T19:56:09.309Z,92.11
2017-09-27T19:58:35.581Z,92.24
2017-09-27T20:01:01.805Z,91.77
2017-09-27T20:03:28.028Z,91.40
2017-09-27T20:05:54.302Z,91.11
2017-09-27T20:08:20.534Z,91.29
2017-09-27T20:10:46.769Z,91.56
2017-09-27T20:13:13.024Z,91.58
2017-09-27T20:15:39.258Z,91.13
2017-09-27T20:18:05.485Z,90.32
2017-09-27T20:20:31.733Z,90.05
2017-09-27T20:22:57.934Z,90.41
2017-09-27T20:25:24.147Z,90.31
2017-09-27T20:27:50.436Z,90.88
2017-09-27T20:30:16.641Z,91.01
2017-09-27T20:32:42.830Z,91.32
2017-09-27T20:35:09.115Z,91.34
2017-09-27T20:37:35.340Z,91.48
2017-09-27T20:40:01.566Z,91.29
2017-09-27T20:42:27.866Z,90.35
2017-09-27T20:44:54.096Z,91.75
2017-09-27T20:47:20.321Z,91.42
2017-09-27T20:49:46.576Z,91.07
2017-09-27T20:52:12.837Z,90.96
2017-09-27T20:54:39.075Z,91.84
2017-09-27T20:57:05.322Z,91.61
2017-09-27T20:59:31.530Z,91.34
2017-09-27T21:01:57.781Z,90.71
2017-09-27T21:04:24.055Z,92.00
2017-09-27T21:06:50.295Z,92.37
2017-09-27T21:09:16.504Z,92.18
2017-09-27T21:11:42.857Z,91.57
2017-09-27T21:14:09.090Z,91.54
2017-09-27T21:16:35.305Z,92.02
2017-09-27T21:19:01.747Z,91.55
2017-09-27T21:21:27.973Z,91.96
2017-09-27T21:23:54.193Z,91.80
2017-09-27T21:26:20.461Z,91.10
2017-09-27T21:28:46.701Z,90.76
2017-09-27T21:31:12.931Z,90.49
2017-09-27T21:33:39.263Z,91.80
2017-09-27T21:36:05.500Z,91.15
2017-09-27T21:38:31.714Z,91.80
2017-09-27T21:40:57.970Z,91.34
2017-09-27T21:43:24.233Z,91.23
2017-09-27T21:45:50.486Z,91.83
2017-09-27T21:48:16.749Z,91.84
2017-09-27T21:50:42.969Z,91.54
2017-09-27T21:53:09.204Z,92.22
2017-09-27T21:55:35.528Z,91.47
2017-09-27T21:58:01.757Z,92.05
2017-09-27T22:00:27.989Z,91.68
2017-09-27T22:02:54.259Z,91.21
2017-09-27T22:05:20.478Z,92.08
2017-09-27T22:07:46.701Z,92.60
2017-09-27T22:10:12.966Z,92.15
2017-09-27T22:12:39.191Z,92.14
2017-09-27T22:15:05.492Z,91.69
2017-09-27T22:17:31.761Z,91.68
2017-09-27T22:19:57.988Z,90.78
2017-09-27T22:22:24.212Z,90.70
2017-09-27T22:24:50.506Z,90.57
2017-09-27T22:27:16.726Z,91.17
2017-09-27T22:29:42.948Z,90.98
2017-09-27T22:32:09.207Z,90.93
2017-09-27T22:34:35.455Z,90.62
2017-09-27T22:37:01.700Z,89.95
2017-09-27T22:39:27.956Z,89.84
2017-09-27T22:41:54.198Z,89.79
2017-09-27T22:44:20.421Z,90.72
2017-09-27T22:46:46.707Z,90.65
2017-09-27T22:49:12.956Z,91.49
2017-09-27T22:51:39.191Z,92.06
2017-09-27T22:54:05.456Z,92.17
2017-09-27T22:56:31.672Z,92.69
2017-09-27T22:58:57.891Z,92.18
2017-09-27T23:01:24.172Z,91.62
2017-09-27T23:03:50.425Z,92.24
2017-09-27T23:06:16.664Z,92.62
2017-09-27T23:08:42.957Z,92.23
2017-09-27T23:11:09.204Z,92.40
2017-09-27T23:13:35.453Z,92.06
2017-09-27T23:16:01.747Z,91.95
2017-09-27T23:18:27.974Z,92.16
2017-09-27T23:20:54.206Z,93.06
2017-09-27T23:23:26.671Z,92.19
2017-09-27T23:25:52.901Z,92.04
2017-09-27T23:28:19.138Z,93.17
2017-09-27T23:30:46.731Z,94.42
2017-09-27T23:33:12.973Z,94.26
2017-09-27T23:35:39.216Z,93.71
2017-09-27T23:38:05.497Z,93.04
2017-09-27T23:40:31.737Z,92.89
2017-09-27T23:42:57.969Z,93.67
2017-09-27T23:45:24.252Z,92.20
2017-09-27T23:47:50.458Z,92.11
2017-09-27T23:50:16.692Z,91.79
2017-09-27T23:52:42.933Z,92.88
2017-09-27T23:55:09.147Z,93.03
2017-09-27T23:57:35.361Z,93.44
